Time;durP1;ratioP1;P1;durP2;ratioP2;P2;SDS_P1;SDS_P2;PMS_P1;PMS_P2;Temp;Humidity;BMP_temperature;BMP_pressure;BME280_temperature;BME280_humidity;BME280_pressure;Samples;Min_cycle;Max_cycle;Signal;HPM_P1;HPM_P2
2022/05/01 00:01:07;;;;;;;40.33;21.60;;;;;;;2.15;94.82;102712.72;5089609;28;20495;-72
2022/05/01 00:03:34;;;;;;;41.97;21.80;;;;;;;2.12;94.19;102711.03;5089510;28;20040;-68
2022/05/01 00:06:09;;;;;;;33.50;18.73;;;;;;;2.10;92.90;102708.41;5089768;28;20124;-68
2022/05/01 00:08:40;;;;;;;35.50;18.48;;;;;;;2.03;92.09;102706.88;5089503;28;20028;-68
2022/05/01 00:11:08;;;;;;;33.63;18.58;;;;;;;2.00;91.72;102703.44;5089789;28;20036;-68
2022/05/01 00:13:33;;;;;;;31.58;17.92;;;;;;;1.99;91.90;102707.84;5090031;28;20024;-68
2022/05/01 00:15:59;;;;;;;32.15;17.38;;;;;;;1.99;92.64;102699.97;5089724;28;20032;-69
2022/05/01 00:18:24;;;;;;;27.45;16.33;;;;;;;2.00;93.52;102700.81;5089557;28;20107;-69
2022/05/01 00:20:49;;;;;;;27.58;16.15;;;;;;;1.99;93.16;102707.00;5089589;28;20139;-68
2022/05/01 00:23:15;;;;;;;34.83;19.48;;;;;;;1.94;92.65;102707.97;5089561;28;20039;-69
2022/05/01 00:25:42;;;;;;;33.78;17.92;;;;;;;1.94;93.08;102707.97;5089575;28;20044;-68
2022/05/01 00:28:12;;;;;;;32.03;17.85;;;;;;;1.96;93.86;102704.41;5089539;28;20079;-69
2022/05/01 00:30:38;;;;;;;28.23;16.30;;;;;;;1.97;94.37;102701.78;5089305;28;20032;-69
2022/05/01 00:38:33;;;;;;;24.27;14.43;;;;;;;1.88;93.90;102692.38;5092402;28;20050;-68
2022/05/01 00:40:59;;;;;;;22.67;14.07;;;;;;;1.84;93.16;102688.06;5093335;28;20463;-68
2022/05/01 00:43:25;;;;;;;25.20;14.85;;;;;;;1.83;93.61;102688.97;5093312;28;20024;-68
2022/05/01 00:45:50;;;;;;;22.67;13.82;;;;;;;1.79;93.35;102686.47;5093090;28;20143;-68
2022/05/01 00:48:16;;;;;;;24.50;13.68;;;;;;;1.76;93.12;102676.88;5092872;28;20024;-69
2022/05/01 00:50:43;;;;;;;22.73;13.10;;;;;;;1.75;93.21;102678.66;5093342;28;20060;-68
2022/05/01 00:53:09;;;;;;;21.58;12.73;;;;;;;1.72;92.85;102676.13;5093159;28;20039;-68
2022/05/01 00:55:36;;;;;;;19.98;13.07;;;;;;;1.67;92.49;102670.13;5092877;28;20115;-68
2022/05/01 00:58:04;;;;;;;18.13;12.10;;;;;;;1.65;92.40;102669.28;5092795;28;20032;-68
2022/05/01 01:00:30;;;;;;;19.95;12.00;;;;;;;1.60;92.39;102668.53;5092479;28;20036;-68
2022/05/01 01:02:55;;;;;;;20.75;12.55;;;;;;;1.55;92.27;102668.66;5092845;28;20039;-68
2022/05/01 01:05:21;;;;;;;23.63;13.07;;;;;;;1.52;92.17;102667.84;5092461;28;20430;-69
2022/05/01 01:07:46;;;;;;;19.67;12.32;;;;;;;1.54;92.76;102666.06;5092628;28;20329;-68
2022/05/01 01:10:12;;;;;;;21.23;13.45;;;;;;;1.56;93.39;102665.09;5092691;28;20028;-69
2022/05/01 01:12:53;;;;;;;19.00;11.80;;;;;;;1.57;93.83;102668.63;5092366;28;20089;-68
2022/05/01 01:15:20;;;;;;;16.58;11.57;;;;;;;1.53;93.53;102669.56;5092505;28;20024;-69
2022/05/01 01:17:46;;;;;;;20.10;12.93;;;;;;;1.50;93.22;102672.28;5092611;28;20089;-69
2022/05/01 01:20:18;;;;;;;17.85;12.00;;;;;;;1.47;93.26;102670.56;5074041;28;20036;-69
2022/05/01 01:22:48;;;;;;;21.90;12.05;;;;;;;1.47;93.75;102670.56;5092636;28;20111;-69
2022/05/01 01:25:15;;;;;;;15.65;11.63;;;;;;;1.46;93.74;102666.22;5092377;28;20032;-69
2022/05/01 01:27:41;;;;;;;24.45;12.80;;;;;;;1.47;93.95;102667.09;5092446;28;20032;-69
2022/05/01 01:32:51;;;;;;;15.48;11.57;;;;;;;1.42;94.43;102672.47;5092175;28;20046;-69
2022/05/01 01:35:20;;;;;;;15.98;11.48;;;;;;;1.38;93.61;102663.78;5092044;28;20025;-69
2022/05/01 01:37:46;;;;;;;15.95;11.63;;;;;;;1.35;93.65;102663.84;5092002;28;20075;-69
2022/05/01 01:40:25;;;;;;;18.98;11.75;;;;;;;1.35;94.25;102663.84;5091662;28;20040;-69
2022/05/01 01:42:54;;;;;;;17.80;11.65;;;;;;;1.31;94.15;102662.19;5092307;28;20028;-69
2022/05/01 01:45:20;;;;;;;18.27;11.82;;;;;;;1.28;93.95;102667.50;5091583;28;20032;-73
2022/05/01 01:47:49;;;;;;;16.30;11.68;;;;;;;1.25;94.02;102656.22;5091809;28;20047;-70
2022/05/01 01:50:18;;;;;;;18.23;11.90;;;;;;;1.27;94.35;102668.41;5090717;28;20040;-70
2022/05/01 01:52:47;;;;;;;20.02;12.45;;;;;;;1.26;94.28;102668.44;5091918;28;20067;-69
2022/05/01 01:55:17;;;;;;;19.42;11.55;;;;;;;1.27;94.59;102665.78;5091417;28;20036;-69
2022/05/01 01:57:45;;;;;;;19.30;13.77;;;;;;;1.28;94.76;102661.41;5091656;28;20040;-69
2022/05/01 02:00:12;;;;;;;17.30;11.98;;;;;;;1.28;95.45;102661.41;5091659;28;20032;-69
2022/05/01 02:02:38;;;;;;;16.05;11.20;;;;;;;1.28;95.58;102661.41;5073114;28;20365;-69
2022/05/01 02:05:04;;;;;;;19.73;12.50;;;;;;;1.26;95.54;102663.22;5091816;28;20036;-70
2022/05/01 02:07:30;;;;;;;17.60;10.88;;;;;;;1.25;95.25;102666.72;5091596;28;20039;-69
2022/05/01 02:09:56;;;;;;;20.65;12.70;;;;;;;1.22;95.25;102665.91;5073064;28;20193;-69
2022/05/01 02:12:22;;;;;;;18.20;12.52;;;;;;;1.21;95.35;102663.31;5091317;28;20114;-71
2022/05/01 02:14:47;;;;;;;20.00;12.77;;;;;;;1.19;95.21;102663.31;5091331;28;20055;-68
2022/05/01 02:17:12;;;;;;;19.17;12.50;;;;;;;1.20;95.22;102664.19;5091029;28;20032;-69
2022/05/01 02:19:38;;;;;;;20.15;12.30;;;;;;;1.17;94.83;102662.50;5091036;28;20076;-69
2022/05/01 02:22:03;;;;;;;18.08;12.20;;;;;;;1.13;nan;102655.59;5091085;28;20036;-69
2022/05/01 02:24:31;;;;;;;17.65;11.43;;;;;;;1.10;94.26;102645.16;5091279;28;20040;-69
2022/05/01 02:26:57;;;;;;;19.02;11.75;;;;;;;1.06;94.05;102648.78;5091100;28;20032;-69
2022/05/01 02:29:22;;;;;;;15.32;11.20;;;;;;;1.04;94.30;102637.44;5090931;28;20043;-68
2022/05/01 02:31:53;;;;;;;16.63;11.38;;;;;;;0.99;94.30;102645.41;5090881;28;20035;-69
2022/05/01 02:34:20;;;;;;;16.77;11.50;;;;;;;0.97;93.73;102639.34;5090895;28;20024;-68
2022/05/01 02:36:46;;;;;;;17.38;12.48;;;;;;;0.95;94.04;102646.34;5090765;28;20021;-68
2022/05/01 02:39:11;;;;;;;17.00;10.75;;;;;;;0.92;94.24;102635.94;5091152;28;20391;-69
2022/05/01 02:41:37;;;;;;;16.52;11.48;;;;;;;0.88;94.13;102632.53;5090533;28;20370;-69
2022/05/01 02:44:03;;;;;;;18.85;11.40;;;;;;;0.86;94.09;102634.31;5090821;28;20031;-70
2022/05/01 02:46:28;;;;;;;17.95;11.23;;;;;;;0.85;94.13;102636.97;5090969;28;20084;-71
2022/05/01 02:48:54;;;;;;;16.80;11.52;;;;;;;0.84;94.28;102633.50;5090553;28;20028;-68
2022/05/01 02:51:19;;;;;;;22.70;12.25;;;;;;;0.84;94.38;102623.00;5090293;28;20052;-69
2022/05/01 02:53:45;;;;;;;20.70;12.80;;;;;;;0.83;94.23;102633.53;5090511;28;20040;-68
2022/05/01 02:56:10;;;;;;;17.33;11.23;;;;;;;0.81;94.07;102628.31;5090462;28;20184;-68
2022/05/01 02:58:36;;;;;;;19.95;12.48;;;;;;;0.78;93.87;102628.38;5090390;28;20072;-69
2022/05/01 03:01:01;;;;;;;18.48;12.07;;;;;;;0.76;93.83;102630.19;5072221;28;20106;-69
2022/05/01 03:03:27;;;;;;;21.33;12.02;;;;;;;0.76;93.55;102627.56;5089975;28;20115;-69
2022/05/01 03:05:53;;;;;;;17.52;12.25;;;;;;;0.75;93.53;102625.81;5090687;28;20112;-69
2022/05/01 03:08:19;;;;;;;18.20;12.73;;;;;;;0.75;93.81;102625.81;5090696;28;20059;-69
2022/05/01 03:10:45;;;;;;;18.40;11.55;;;;;;;0.74;94.49;102621.47;5090116;28;20034;-68
2022/05/01 03:13:11;;;;;;;17.75;11.95;;;;;;;0.72;94.14;102622.38;5090421;28;20032;-68
2022/05/01 03:15:36;;;;;;;19.30;11.95;;;;;;;0.69;93.75;102618.94;5090163;28;20048;-69
2022/05/01 03:23:30;;;;;;;18.42;12.10;;;;;;;0.62;93.98;102611.25;5090264;28;20059;-71
2022/05/01 03:25:57;;;;;;;20.77;11.95;;;;;;;0.62;93.95;102624.34;5089897;28;20076;-69
2022/05/01 03:28:23;;;;;;;17.25;11.70;;;;;;;0.60;93.53;102615.63;5089900;28;20040;-68
2022/05/01 03:30:48;;;;;;;20.05;12.85;;;;;;;0.59;93.43;102613.94;5089856;28;20106;-69
2022/05/01 03:33:14;;;;;;;19.17;12.15;;;;;;;0.58;93.33;102612.19;5071750;28;20054;-68
2022/05/01 03:35:40;;;;;;;20.05;11.85;;;;;;;0.56;93.54;102614.84;5089717;28;20035;-69
2022/05/01 03:38:09;;;;;;;15.65;11.95;;;;;;;0.53;93.48;102613.16;5089663;28;20039;-68
2022/05/01 03:40:35;;;;;;;17.90;12.40;;;;;;;0.53;93.41;102617.53;5089567;28;20047;-72
2022/05/01 03:43:02;;;;;;;17.90;11.93;;;;;;;0.52;93.39;102608.81;5071578;28;20477;-69
2022/05/01 03:45:28;;;;;;;21.52;12.95;;;;;;;0.53;93.43;102612.28;5071628;28;20047;-69
2022/05/01 03:47:53;;;;;;;18.42;12.15;;;;;;;0.53;93.53;102610.53;5089422;28;20043;-69
2022/05/01 03:50:19;;;;;;;16.70;12.25;;;;;;;0.53;93.77;102612.28;5089588;28;20143;-69
2022/05/01 03:52:45;;;;;;;18.02;12.15;;;;;;;0.52;93.88;102611.44;5089784;28;20154;-69
2022/05/01 03:55:11;;;;;;;17.98;11.45;;;;;;;0.52;94.37;102605.31;5089622;28;20143;-69
2022/05/01 03:57:37;;;;;;;16.27;11.65;;;;;;;0.51;94.43;102606.22;5089901;28;20417;-69
2022/05/01 04:00:04;;;;;;;19.58;12.10;;;;;;;0.52;94.34;102610.56;5089873;28;20043;-68
2022/05/01 04:02:29;;;;;;;18.42;12.55;;;;;;;0.55;94.43;102607.88;5089460;28;20028;-68
2022/05/01 04:04:56;;;;;;;18.35;11.77;;;;;;;0.54;94.78;102606.16;5089592;28;20077;-68
2022/05/01 04:07:21;;;;;;;18.40;12.13;;;;;;;0.57;94.85;102602.59;5089765;28;20071;-68
2022/05/01 04:09:47;;;;;;;20.00;11.93;;;;;;;0.60;94.95;102605.16;5089251;28;20127;-69
2022/05/01 04:12:13;;;;;;;14.50;10.68;;;;;;;0.63;94.98;102602.50;5090392;28;20028;-69
2022/05/01 04:14:38;;;;;;;15.48;10.88;;;;;;;0.65;95.34;102604.19;5093518;28;20130;-72
2022/05/01 04:17:05;;;;;;;15.07;10.57;;;;;;;0.67;95.38;102602.41;5093173;28;20124;-69
2022/05/01 04:19:30;;;;;;;21.98;12.90;;;;;;;0.75;96.04;102609.22;5093485;28;20044;-68
2022/05/01 04:21:56;;;;;;;16.08;10.82;;;;;;;0.80;96.68;102610.00;5093450;28;20058;-68
2022/05/01 04:24:23;;;;;;;13.95;10.13;;;;;;;0.81;96.89;102607.34;5093588;28;20031;-68
2022/05/01 04:26:48;;;;;;;17.77;10.27;;;;;;;0.85;96.98;102611.63;5093175;28;20043;-68
2022/05/01 04:31:58;;;;;;;19.33;11.35;;;;;;;0.95;97.18;102614.91;5093222;28;20047;-69
2022/05/01 04:34:23;;;;;;;14.98;10.32;;;;;;;1.02;97.44;102618.28;5093150;28;20035;-69
2022/05/01 04:36:49;;;;;;;19.98;10.82;;;;;;;1.11;97.81;102617.22;5093044;28;20484;-68
2022/05/01 04:39:14;;;;;;;21.95;13.32;;;;;;;1.20;98.14;102611.75;5074713;28;20036;-68
2022/05/01 04:41:39;;;;;;;18.67;11.30;;;;;;;1.31;98.37;102614.97;5093341;28;20031;-72
2022/05/01 04:44:05;;;;;;;18.13;11.60;;;;;;;1.39;98.88;102615.66;5092640;28;20028;-68
2022/05/01 04:46:30;;;;;;;18.98;11.07;;;;;;;1.49;99.04;102610.19;5093001;28;20396;-68
2022/05/01 04:48:56;;;;;;;22.23;11.65;;;;;;;1.58;99.25;102609.97;5093248;28;20166;-69
2022/05/01 04:51:22;;;;;;;20.02;12.88;;;;;;;1.68;99.64;102611.47;5092999;28;20079;-68
2022/05/01 04:53:47;;;;;;;18.75;12.75;;;;;;;1.79;99.86;102624.31;5093081;28;20207;-69
2022/05/01 04:58:57;;;;;;;24.75;14.95;;;;;;;2.04;100.00;102626.31;5093061;28;20096;-69
2022/05/01 05:01:22;;;;;;;22.63;14.63;;;;;;;2.19;100.00;102625.06;5092924;28;20031;-69
2022/05/01 05:03:47;;;;;;;26.38;15.20;;;;;;;2.32;100.00;102621.19;5092562;28;20035;-70
2022/05/01 05:06:13;;;;;;;25.02;16.33;;;;;;;2.48;100.00;102629.53;5092671;28;20189;-69
2022/05/01 05:11:22;;;;;;;25.90;16.05;;;;;;;2.83;100.00;102628.50;5092687;28;20059;-70
2022/05/01 05:13:47;;;;;;;28.30;16.60;;;;;;;3.02;100.00;102635.00;5092059;28;20029;-69
2022/05/01 05:16:13;;;;;;;29.10;18.27;;;;;;;3.18;100.00;102642.38;5092270;28;20032;-69
2022/05/01 05:18:42;;;;;;;33.10;18.63;;;;;;;3.37;100.00;102639.16;5092096;28;20124;-69
2022/05/01 05:21:07;;;;;;;32.47;18.17;;;;;;;3.54;100.00;102641.28;5092421;28;20124;-69
2022/05/01 05:23:33;;;;;;;29.90;17.60;;;;;;;3.72;100.00;102645.06;5091875;28;20119;-69
2022/05/01 05:25:58;;;;;;;25.30;16.88;;;;;;;3.89;100.00;102644.50;5092095;28;20039;-69
2022/05/01 05:28:24;;;;;;;29.60;16.75;;;;;;;4.07;100.00;102640.38;5092188;28;20058;-69
2022/05/01 05:30:49;;;;;;;25.05;15.27;;;;;;;4.23;100.00;102643.34;5091983;28;20172;-69
2022/05/01 05:33:15;;;;;;;33.75;16.65;;;;;;;4.38;100.00;102645.44;5092055;28;20028;-69
2022/05/01 05:35:41;;;;;;;22.95;15.60;;;;;;;4.52;100.00;102652.00;5091894;28;20506;-68
2022/05/01 05:38:07;;;;;;;22.17;14.75;;;;;;;4.66;100.00;102647.09;5091901;28;20054;-68
2022/05/01 05:40:32;;;;;;;23.17;15.18;;;;;;;4.83;100.00;102656.16;5092289;28;20089;-68
2022/05/01 05:42:57;;;;;;;29.15;16.08;;;;;;;4.99;100.00;102654.66;5091789;28;20119;-68
2022/05/01 05:45:23;;;;;;;29.23;15.38;;;;;;;5.12;100.00;102663.81;5092026;28;20043;-69
2022/05/01 05:47:49;;;;;;;24.00;15.30;;;;;;;5.24;100.00;102662.50;5091861;28;20412;-69
2022/05/01 05:50:14;;;;;;;25.83;16.15;;;;;;;5.38;100.00;102659.31;5091539;28;20369;-69
2022/05/01 05:52:40;;;;;;;26.63;16.40;;;;;;;5.51;100.00;102669.38;5073427;28;20039;-69
2022/05/01 05:55:06;;;;;;;22.60;15.45;;;;;;;5.59;100.00;102668.13;5091492;28;20035;-69
2022/05/01 05:57:31;;;;;;;24.30;14.48;;;;;;;5.69;100.00;102670.41;5091846;28;20036;-69
2022/05/01 05:59:56;;;;;;;25.85;16.17;;;;;;;5.80;99.52;102676.97;5091744;28;20097;-68
2022/05/01 06:02:22;;;;;;;28.48;16.75;;;;;;;5.90;99.02;102672.19;5091673;28;20182;-68
2022/05/01 06:04:47;;;;;;;26.75;15.90;;;;;;;6.02;97.92;102672.59;5091734;28;20032;-69
2022/05/01 06:07:12;;;;;;;26.95;16.23;;;;;;;6.15;96.93;102676.44;5091046;28;20051;-69
2022/05/01 06:09:38;;;;;;;23.25;15.98;;;;;;;6.25;96.12;102675.13;5073215;28;20038;-69
2022/05/01 06:12:04;;;;;;;24.75;16.00;;;;;;;6.35;95.34;102676.44;5091437;28;20028;-69
2022/05/01 06:14:29;;;;;;;26.67;16.95;;;;;;;6.44;94.46;102680.47;5091500;28;20047;-68
2022/05/01 06:16:54;;;;;;;22.42;15.65;;;;;;;6.56;94.26;102678.25;5090840;28;20040;-69
2022/05/01 06:19:20;;;;;;;23.83;16.98;;;;;;;6.67;93.99;102676.84;5091176;28;20107;-69
2022/05/01 06:21:45;;;;;;;23.80;16.90;;;;;;;6.77;93.55;102676.41;5091362;28;20070;-69
2022/05/01 06:24:11;;;;;;;29.60;17.30;;;;;;;6.83;92.81;102682.28;5072942;28;20100;-69
2022/05/01 06:26:36;;;;;;;33.83;17.35;;;;;;;6.87;92.05;102675.91;5072786;28;20103;-69
2022/05/01 06:29:01;;;;;;;27.50;16.23;;;;;;;6.97;92.15;102681.66;5072954;28;20032;-69
2022/05/01 06:31:28;;;;;;;22.98;16.10;;;;;;;7.01;91.58;102682.38;5091113;28;20024;-68
2022/05/01 06:33:55;;;;;;;27.63;16.35;;;;;;;7.06;90.64;102675.06;5091416;28;20129;-74
2022/05/01 06:36:20;;;;;;;28.85;16.50;;;;;;;7.14;90.93;102675.56;5090283;28;20039;-68
2022/05/01 06:38:47;;;;;;;23.05;16.23;;;;;;;7.22;90.99;102673.41;5091031;28;20036;-68
2022/05/01 06:41:14;;;;;;;24.23;15.90;;;;;;;7.28;90.32;102674.06;5091162;28;20073;-69
2022/05/01 06:43:39;;;;;;;25.42;17.00;;;;;;;7.39;91.09;102669.97;5090943;28;20039;-69
2022/05/01 06:46:05;;;;;;;25.10;16.35;;;;;;;7.53;91.05;102671.97;5072255;28;20028;-69
2022/05/01 06:48:30;;;;;;;23.25;15.35;;;;;;;7.67;90.61;102675.72;5090673;28;20036;-69
2022/05/01 06:50:56;;;;;;;27.30;16.75;;;;;;;7.75;89.47;102674.41;5090811;28;20052;-72
2022/05/01 06:53:21;;;;;;;24.17;15.55;;;;;;;7.75;87.53;102678.88;5090773;28;20095;-69
2022/05/01 06:55:48;;;;;;;23.15;15.55;;;;;;;7.75;87.95;102669.13;5091050;28;20442;-68
2022/05/01 06:58:13;;;;;;;20.77;15.05;;;;;;;7.82;87.74;102671.47;5090758;28;20032;-69
2022/05/01 07:00:39;;;;;;;26.48;15.20;;;;;;;7.89;87.85;102662.28;5072229;28;20109;-69
2022/05/01 07:03:05;;;;;;;19.10;13.25;;;;;;;8.00;87.28;102664.38;5090507;28;20522;-69
2022/05/01 07:05:30;;;;;;;25.63;14.48;;;;;;;8.09;86.77;102670.09;5090706;28;20036;-69
2022/05/01 07:07:56;;;;;;;22.60;14.02;;;;;;;8.23;87.29;102668.53;5090698;28;20078;-70
2022/05/01 07:10:22;;;;;;;21.77;13.85;;;;;;;8.29;85.96;102662.91;5090529;28;20032;-70
2022/05/01 07:12:48;;;;;;;20.50;13.52;;;;;;;8.37;86.15;102671.28;5090687;28;20107;-69
2022/05/01 07:15:13;;;;;;;21.08;13.55;;;;;;;8.52;86.35;102663.53;5090407;28;20111;-70
2022/05/01 07:17:39;;;;;;;20.38;14.18;;;;;;;8.69;86.23;102658.19;5090497;28;20039;-69
2022/05/01 07:20:05;;;;;;;18.92;13.27;;;;;;;8.85;84.99;102655.53;5072239;28;20076;-69
2022/05/01 07:22:30;;;;;;;18.85;12.85;;;;;;;8.96;82.69;102661.13;5090511;28;20032;-69
2022/05/01 07:24:56;;;;;;;21.52;11.38;;;;;;;9.07;82.13;102670.31;5091031;28;20036;-71
2022/05/01 07:27:22;;;;;;;13.98;11.07;;;;;;;9.11;81.67;102667.38;5090174;28;20036;-71
2022/05/01 07:29:47;;;;;;;16.08;11.05;;;;;;;9.21;81.30;102667.75;5089917;28;20388;-72
2022/05/01 07:32:13;;;;;;;10.57;8.02;;;;;;;9.22;78.33;102665.94;5089769;28;20501;-71
2022/05/01 07:34:38;;;;;;;15.95;8.00;;;;;;;9.25;76.39;102665.75;5072011;28;20043;-71
2022/05/01 07:37:04;;;;;;;16.38;8.93;;;;;;;9.26;75.41;102663.03;5090189;28;20043;-72
2022/05/01 07:39:30;;;;;;;14.60;7.85;;;;;;;9.33;75.69;102659.09;5090434;28;20329;-72
2022/05/01 07:41:56;;;;;;;11.18;8.32;;;;;;;9.43;75.23;102667.38;5071852;28;20132;-71
2022/05/01 07:44:21;;;;;;;11.65;8.00;;;;;;;9.51;72.97;102664.31;5090431;28;20095;-71
2022/05/01 07:46:47;;;;;;;13.55;8.30;;;;;;;9.60;72.48;102663.78;5073718;28;20032;-71
2022/05/01 07:49:12;;;;;;;14.65;7.47;;;;;;;9.70;72.88;102662.31;5094249;28;20064;-69
2022/05/01 07:51:38;;;;;;;12.23;7.90;;;;;;;9.85;74.35;102657.91;5053895;28;20051;-72
2022/05/01 07:54:04;;;;;;;10.25;7.85;;;;;;;9.97;71.92;102663.41;5053744;28;20434;-76
2022/05/01 07:56:31;;;;;;;14.30;8.40;;;;;;;10.17;72.18;102659.59;5054281;28;20032;-70
2022/05/01 07:58:56;;;;;;;7.35;5.97;;;;;;;10.37;70.27;102661.06;5053792;28;20029;-71
2022/05/01 08:01:22;;;;;;;8.43;6.38;;;;;;;10.57;68.20;102654.53;5053765;28;20432;-72
2022/05/01 08:06:31;;;;;;;10.90;7.95;;;;;;;11.17;66.72;102660.56;5053883;28;20062;-69
2022/05/01 08:08:57;;;;;;;9.55;7.18;;;;;;;11.51;64.55;102653.03;5054053;28;20353;-71
2022/05/01 08:11:22;;;;;;;6.25;4.22;;;;;;;11.72;58.77;102651.63;5053700;28;20098;-71
2022/05/01 08:13:48;;;;;;;8.93;6.00;;;;;;;11.91;58.44;102650.38;5054098;28;20445;-70
2022/05/01 08:16:14;;;;;;;10.75;7.43;;;;;;;12.34;59.67;102656.31;5053688;28;20103;-69
2022/05/01 08:21:24;;;;;;;11.10;4.80;;;;;;;13.24;55.03;102644.63;5053373;28;20231;-70
2022/05/01 08:23:50;;;;;;;10.20;5.70;;;;;;;13.54;51.53;102652.25;5053654;28;20083;-69
2022/05/01 08:26:17;;;;;;;8.25;5.80;;;;;;;13.93;51.17;102642.19;5053604;28;20064;-71
2022/05/01 08:28:44;;;;;;;7.78;5.97;;;;;;;14.09;50.98;102643.66;5053373;28;20114;-68
2022/05/01 08:31:09;;;;;;;7.85;6.28;;;;;;;14.40;48.73;102639.47;5053311;28;20162;-69
2022/05/01 08:33:36;;;;;;;9.73;5.45;;;;;;;14.65;47.14;102640.25;5053517;28;20485;-69
2022/05/01 08:36:04;;;;;;;8.00;5.70;;;;;;;13.93;48.95;102641.34;5051904;28;20060;-69
2022/05/01 08:38:30;;;;;;;9.10;6.25;;;;;;;13.86;51.07;102642.78;5052885;28;20052;-71
2022/05/01 08:40:56;;;;;;;8.98;5.88;;;;;;;13.97;49.84;102640.09;5052926;28;20037;-70
2022/05/01 08:43:24;;;;;;;5.63;4.47;;;;;;;13.85;46.58;102638.38;5053252;28;20036;-70
2022/05/01 08:45:52;;;;;;;5.35;4.40;;;;;;;14.44;45.30;102635.56;5052606;28;20527;-69
2022/05/01 08:48:29;;;;;;;4.63;4.22;;;;;;;14.99;43.97;102634.88;5053021;28;20125;-75
2022/05/01 08:50:55;;;;;;;4.80;3.60;;;;;;;14.90;42.66;102638.25;5081184;28;20102;-72
2022/05/01 08:53:22;;;;;;;8.23;4.85;;;;;;;14.80;45.10;102633.66;5093274;28;20418;-74
2022/05/01 08:55:48;;;;;;;8.38;5.72;;;;;;;15.13;45.16;102634.56;5092504;28;20441;-74
2022/05/01 08:58:15;;;;;;;9.20;6.50;;;;;;;15.25;44.48;102630.03;5073843;28;20063;-75
2022/05/01 09:00:41;;;;;;;11.32;6.68;;;;;;;15.33;47.66;102632.94;5073922;28;20031;-70
2022/05/01 09:03:07;;;;;;;7.97;6.75;;;;;;;15.41;46.42;102636.84;5092865;28;20028;-70
2022/05/01 09:05:32;;;;;;;10.25;7.13;;;;;;;15.05;44.75;102637.03;5093127;28;20042;-69
2022/05/01 09:07:57;;;;;;;9.38;7.20;;;;;;;15.63;44.08;102636.75;5092564;28;20063;-69
2022/05/01 09:10:30;;;;;;;9.85;6.50;;;;;;;15.61;43.44;102640.53;5093102;28;20028;-71
2022/05/01 09:12:56;;;;;;;8.38;7.00;;;;;;;15.09;44.97;102634.94;5092989;28;20024;-68
2022/05/01 09:15:43;;;;;;;10.15;6.82;;;;;;;14.93;45.60;102633.53;5092722;28;20336;-68
2022/05/01 09:18:11;;;;;;;13.05;7.00;;;;;;;14.71;46.36;102637.06;5093368;28;20250;-68
2022/05/01 09:20:39;;;;;;;9.73;6.38;;;;;;;14.27;48.68;102641.38;5092682;28;20338;-68
2022/05/01 09:23:06;;;;;;;10.70;7.15;;;;;;;14.18;48.92;102636.75;5092919;28;20043;-69
2022/05/01 09:25:34;;;;;;;9.43;7.00;;;;;;;13.99;48.95;102642.66;5092172;28;20216;-71
2022/05/01 09:28:18;;;;;;;8.50;6.45;;;;;;;13.71;47.38;102642.09;5092499;28;20051;-69
2022/05/01 09:30:44;;;;;;;10.73;7.32;;;;;;;14.10;48.94;102648.91;5074513;28;20028;-70
2022/05/01 09:33:21;;;;;;;9.77;5.97;;;;;;;14.22;48.63;102646.25;5092371;28;20032;-69
2022/05/01 09:35:48;;;;;;;7.75;6.13;;;;;;;14.43;47.29;102647.25;5092505;28;20137;-68
2022/05/01 09:38:27;;;;;;;8.27;5.80;;;;;;;14.35;46.83;102646.19;5091930;28;20032;-73
2022/05/01 09:41:04;;;;;;;9.55;6.35;;;;;;;14.29;47.83;102648.34;5092431;28;20055;-71
2022/05/01 09:43:43;;;;;;;7.97;6.05;;;;;;;14.22;48.10;102648.94;5092097;28;20054;-71
2022/05/01 09:46:23;;;;;;;10.65;6.68;;;;;;;14.30;47.40;102654.53;5092045;28;20166;-69
2022/05/01 09:49:03;;;;;;;11.15;6.10;;;;;;;14.70;46.58;102648.75;5092065;28;20114;-70
2022/05/01 09:51:31;;;;;;;11.57;5.47;;;;;;;15.27;46.22;102646.00;5073805;28;20044;-70
2022/05/01 09:53:58;;;;;;;7.63;6.18;;;;;;;15.62;44.28;102642.22;5092232;28;20044;-69
2022/05/01 09:56:23;;;;;;;8.82;4.93;;;;;;;15.78;40.75;102648.06;5091939;28;20041;-69
2022/05/01 09:59:00;;;;;;;7.45;4.93;;;;;;;15.34;43.58;102639.16;5092086;28;20413;-69
2022/05/01 10:01:26;;;;;;;7.25;5.75;;;;;;;15.02;42.31;102637.28;5091764;28;20043;-70
2022/05/01 10:03:52;;;;;;;8.25;5.47;;;;;;;15.05;44.43;102639.72;5092138;28;20033;-69
2022/05/01 10:06:18;;;;;;;6.13;5.43;;;;;;;15.14;43.50;102633.59;5091508;28;20035;-74
2022/05/01 10:08:46;;;;;;;7.85;5.50;;;;;;;16.32;41.53;102629.19;5091139;28;20032;-69
2022/05/01 10:11:17;;;;;;;7.90;5.75;;;;;;;18.36;36.53;102626.84;5090312;28;20483;-69
2022/05/01 10:13:44;;;;;;;7.13;5.43;;;;;;;19.88;35.08;102625.34;5091421;28;20433;-69
2022/05/01 10:16:11;;;;;;;11.05;5.75;;;;;;;20.59;33.16;102619.84;5091590;28;20024;-70
2022/05/01 10:18:38;;;;;;;6.80;5.40;;;;;;;20.80;33.74;102624.00;5091229;28;20452;-69
2022/05/01 10:21:05;;;;;;;10.57;5.40;;;;;;;20.36;34.23;102614.13;5091975;28;20459;-69
2022/05/01 10:23:31;;;;;;;6.20;5.32;;;;;;;19.92;34.04;102611.53;5091377;28;20046;-70
2022/05/01 10:26:06;;;;;;;7.70;5.65;;;;;;;20.23;32.77;102618.13;5091718;28;20039;-70
2022/05/01 10:28:37;;;;;;;7.57;5.60;;;;;;;20.68;33.06;102608.06;5072929;28;20039;-70
2022/05/01 10:32:24;;;;;;;8.00;5.35;;;;;;;20.93;32.79;102611.72;5145988;27;20842;-70
2022/05/01 10:35:05;;;;;;;6.28;5.20;;;;;;;21.66;30.27;102606.56;4984075;28;20243;-69
2022/05/01 10:37:49;;;;;;;6.35;4.80;;;;;;;22.05;29.36;102599.56;4965625;28;20042;-72
2022/05/01 10:40:14;;;;;;;9.25;5.05;;;;;;;21.60;30.10;102601.81;5040900;28;20068;-71
2022/05/01 10:42:46;;;;;;;7.50;4.40;;;;;;;22.49;28.71;102597.25;5045646;28;20384;-70
2022/05/01 10:45:23;;;;;;;13.10;4.88;;;;;;;22.87;27.85;102600.13;5063335;28;20143;-70
2022/05/01 10:47:51;;;;;;;7.63;4.38;;;;;;;21.46;29.04;102597.91;5045996;28;20124;-72
2022/05/01 10:50:21;;;;;;;6.30;4.22;;;;;;;22.61;27.41;102596.88;5063268;28;20155;-69
2022/05/01 10:53:16;;;;;;;8.02;5.20;;;;;;;22.52;26.84;102583.34;5046260;28;20046;-70
2022/05/01 10:55:52;;;;;;;9.45;4.82;;;;;;;22.50;29.15;102579.13;5062874;28;20064;-70
2022/05/01 10:58:29;;;;;;;5.68;4.30;;;;;;;21.80;27.88;102586.09;5046860;28;20032;-70
2022/05/01 11:00:56;;;;;;;6.43;4.70;;;;;;;20.44;29.35;102573.66;5046627;28;20037;-71
2022/05/01 11:03:29;;;;;;;5.22;4.35;;;;;;;20.51;29.60;102572.00;5062775;28;20056;-77
2022/05/01 11:06:04;;;;;;;14.68;4.75;;;;;;;20.69;30.56;102577.31;5116367;28;20035;-71
2022/05/01 11:08:38;;;;;;;6.25;4.45;;;;;;;20.94;29.30;102572.81;5107793;28;20176;-70
2022/05/01 11:11:10;;;;;;;7.13;4.20;;;;;;;21.88;28.89;102566.25;5126294;28;20387;-71
2022/05/01 11:13:38;;;;;;;7.85;5.20;;;;;;;21.79;27.40;102563.53;5126146;28;20035;-71
2022/05/01 11:16:08;;;;;;;6.75;5.40;;;;;;;19.87;30.23;102564.22;5108225;28;20085;-70
2022/05/01 11:18:35;;;;;;;6.22;4.90;;;;;;;21.08;29.48;102563.19;5126708;28;20042;-71
2022/05/01 11:21:19;;;;;;;5.40;4.47;;;;;;;21.28;28.30;102557.47;5126495;28;20039;-70
2022/05/01 11:23:44;;;;;;;7.60;4.70;;;;;;;22.80;26.30;102554.91;5125851;28;20028;-71
2022/05/01 11:26:13;;;;;;;9.63;4.20;;;;;;;22.62;24.36;102550.59;5126559;28;20448;-71
2022/05/01 11:28:47;;;;;;;5.10;3.88;;;;;;;23.56;23.53;102546.88;5125819;28;20096;-71
2022/05/01 11:31:37;;;;;;;5.93;4.15;;;;;;;22.48;26.01;102546.78;5107328;27;20054;-71
2022/05/01 11:34:24;;;;;;;6.70;4.50;;;;;;;22.22;27.76;102543.47;5105997;28;20115;-71
2022/05/01 11:36:56;;;;;;;5.20;4.20;;;;;;;23.66;25.82;102533.00;5105180;28;20031;-71
2022/05/01 11:39:21;;;;;;;4.70;4.10;;;;;;;23.94;25.12;102525.97;5105487;28;20036;-70
2022/05/01 11:42:00;;;;;;;6.72;4.20;;;;;;;24.27;24.74;102525.56;5096005;28;20115;-72
2022/05/01 11:44:27;;;;;;;6.30;3.90;;;;;;;23.49;25.84;102527.75;5091677;28;20039;-76
2022/05/01 11:46:52;;;;;;;5.90;3.97;;;;;;;22.98;24.42;102516.63;5092069;28;20028;-71
2022/05/01 11:49:18;;;;;;;5.35;3.97;;;;;;;22.89;25.89;102518.53;5073559;28;20349;-71